Historique des mesures à Cassis (13260), France
Quotidien Résumé Janvier 18, 2018 Unités:  Métrique/US    US   Métrique
« Précédent (Jour)
Suivant (Jour) »
Quotidien Hebdomadaire Mensuel Annuel Période au choix
  Maximum: Minimum: Moyenne:
Température: 32 °F /  TemperatureC °C 46.8 °F /  8.2 °C 49.8 °F /  9.9 °C
Point de rosée: 32 °F /  DewpointC °C 28.6 °F /  -1.9 °C 37.9 °F /  3.3 °C
Humidité: Humidity % 47 % 60 %
Vitesse du vent: WindSpeedKMH mph /  0 km/h - 5.9 mph /  9.5 km/h
Rafales: WindSpeedGustKMH mph /  0 km/h - -
Vent:- - WSW
Pression: 0 in /  PressurehPa hPa 29.9 in /  1013.4 hPa -
Précipitations: 0.0 in /  0 mm    
Historical Graphs
 
 
Mesures pour : Janvier 18, 2018
Heure Temperature Point de rosée Pression Vent Vitesse du vent Rafales Humidité Pluie (par heure)
32 °F /  TemperatureC °C 32 °F /  DewpointC °C 0 in /  PressurehPa hPa Calm     Humidity % HourlyPrecipMM in /  0 mm
00:12 48 °F /  8.9 °C 28.6 °F /  -1.9 °C 30.1 in /  1018.8 hPa NW 16.3 mph /  26.2 km/h 16.9 mph /  27.2 km/h 47 % 0.0 in /  0 mm
01:12 47.1 °F /  8.4 °C 29.5 °F /  -1.4 °C 30.1 in /  1019.2 hPa NNE 5.5 mph /  8.9 km/h 11.6 mph /  18.7 km/h 50 % 0.0 in /  0 mm
02:12 46.8 °F /  8.2 °C 30 °F /  -1.1 °C 30.1 in /  1019.2 hPa NW 3.2 mph /  5.1 km/h 11.6 mph /  18.7 km/h 52 % 0.0 in /  0 mm
03:12 46.9 °F /  8.3 °C 29.7 °F /  -1.3 °C 30.1 in /  1019.5 hPa North 4.7 mph /  7.6 km/h 4.7 mph /  7.6 km/h 51 % 0.0 in /  0 mm
04:12 47.8 °F /  8.8 °C 29.5 °F /  -1.4 °C 30.1 in /  1018.8 hPa NW 15.1 mph /  24.3 km/h 15.1 mph /  24.3 km/h 49 % 0.0 in /  0 mm
05:12 46.9 °F /  8.3 °C 30 °F /  -1.1 °C 30.1 in /  1018.2 hPa West 6.8 mph /  10.9 km/h 7.6 mph /  12.2 km/h 52 % 0.0 in /  0 mm
06:12 47.5 °F /  8.6 °C 33.4 °F /  0.8 °C 30.1 in /  1017.8 hPa NW 2.6 mph /  4.2 km/h 4.7 mph /  7.6 km/h 58 % 0.0 in /  0 mm
07:12 47.1 °F /  8.4 °C 34 °F /  1.1 °C 30.1 in /  1018.2 hPa WNW 4.7 mph /  7.6 km/h 7.9 mph /  12.7 km/h 60 % 0.0 in /  0 mm
08:12 46.8 °F /  8.2 °C 34.3 °F /  1.3 °C 30.1 in /  1018.5 hPa West 5.8 mph /  9.3 km/h 5.8 mph /  9.3 km/h 62 % 0.0 in /  0 mm
10:12 49.8 °F /  9.9 °C 39.7 °F /  4.3 °C 30.1 in /  1019.2 hPa WNW 2.6 mph /  4.2 km/h 9.0 mph /  14.5 km/h 68 % 0.0 in /  0 mm
11:12 52.2 °F /  11.2 °C 41.5 °F /  5.3 °C 30.1 in /  1018.8 hPa NNW 12.6 mph /  20.3 km/h 12.6 mph /  20.3 km/h 67 % 0.0 in /  0 mm
12:12 53.2 °F /  11.8 °C 42.1 °F /  5.6 °C 30.1 in /  1018.2 hPa NW 5.0 mph /  8 km/h 5.5 mph /  8.9 km/h 66 % 0.0 in /  0 mm
13:12 54.3 °F /  12.4 °C 42.3 °F /  5.7 °C 30 in /  1017.2 hPa Calm   20.6 mph /  33.2 km/h 64 % 0.0 in /  0 mm
14:12 54 °F /  12.2 °C 42.4 °F /  5.8 °C 30 in /  1016.1 hPa WNW 26.2 mph /  42.2 km/h 31.7 mph /  51 km/h 65 % 0.0 in /  0 mm
15:12 55.2 °F /  12.9 °C 43.5 °F /  6.4 °C 30 in /  1015.8 hPa NW 9.3 mph /  15 km/h 9.3 mph /  15 km/h 65 % 0.0 in /  0 mm
16:12 54.3 °F /  12.4 °C 43.5 °F /  6.4 °C 30 in /  1015.5 hPa WNW 10.8 mph /  17.4 km/h 11.6 mph /  18.7 km/h 67 % 0.0 in /  0 mm
17:12 53.4 °F /  11.9 °C 43.5 °F /  6.4 °C 30 in /  1015.1 hPa WSW 4.7 mph /  7.6 km/h 13.4 mph /  21.6 km/h 69 % 0.0 in /  0 mm
18:12 52.9 °F /  11.6 °C 43.2 °F /  6.2 °C 30 in /  1015.1 hPa Calm   6.8 mph /  10.9 km/h 70 % 0.0 in /  0 mm
19:12 52.5 °F /  11.4 °C 43.9 °F /  6.6 °C 30 in /  1014.4 hPa Calm     72 % 0.0 in /  0 mm
20:12 52.5 °F /  11.4 °C 44.4 °F /  6.9 °C 30 in /  1014.4 hPa SSE 1.4 mph /  2.3 km/h 5.0 mph /  8 km/h 74 % 0.0 in /  0 mm
21:12 52.3 °F /  11.3 °C 44.1 °F /  6.7 °C 29.9 in /  1014.1 hPa Calm     73 % 0.0 in /  0 mm
22:12 51.8 °F /  11.0 °C 42.8 °F /  6.0 °C 29.9 in /  1013.8 hPa Calm   1.8 mph /  2.9 km/h 71 % 0.0 in /  0 mm
23:12 51.8 °F /  11.0 °C 42.4 °F /  5.8 °C 29.9 in /  1013.4 hPa West 4.0 mph /  6.4 km/h 9.3 mph /  15 km/h 70 % 0.0 in /  0 mm
Observations météo à CASSIS
WU-History script by Weather Underground - 1 mb